Time;durP1;ratioP1;P1;durP2;ratioP2;P2;SDS_P1;SDS_P2;PMS_P1;PMS_P2;Temp;Humidity;BMP_temperature;BMP_pressure;BME280_temperature;BME280_humidity;BME280_pressure;Samples;Min_cycle;Max_cycle;Signal;HPM_P1;HPM_P2
2023/08/21 00:01:32;;;;;;;9.57;8.97;;;21.90;73.10;;;;;;6239089;28;20288;-82
2023/08/21 00:04:35;;;;;;;11.37;10.33;;;21.90;73.00;;;;;;6238044;28;20224;-81
2023/08/21 00:07:38;;;;;;;10.10;9.20;;;21.70;73.20;;;;;;6226231;28;20300;-81
2023/08/21 00:10:41;;;;;;;11.17;10.17;;;21.70;73.00;;;;;;6236022;28;20243;-78
2023/08/21 00:13:47;;;;;;;10.10;9.20;;;21.70;73.00;;;;;;6230963;28;20648;-81
2023/08/21 00:16:52;;;;;;;10.37;9.43;;;21.70;73.00;;;;;;6226191;28;20340;-80
2023/08/21 00:19:55;;;;;;;10.50;9.53;;;21.60;73.10;;;;;;6224145;28;20725;-80
2023/08/21 00:22:58;;;;;;;11.07;9.97;;;21.60;73.10;;;;;;6228728;28;20321;-81
2023/08/21 00:26:02;;;;;;;11.03;10.23;;;21.50;73.20;;;;;;6234737;28;20331;-83
2023/08/21 00:29:05;;;;;;;10.40;9.50;;;21.50;73.60;;;;;;6226137;28;20238;-82
2023/08/21 00:32:11;;;;;;;11.40;10.30;;;21.50;73.70;;;;;;6225068;28;20235;-79
2023/08/21 00:35:15;;;;;;;10.33;9.63;;;21.40;74.00;;;;;;6227145;28;20292;-81
2023/08/21 00:38:18;;;;;;;12.37;11.13;;;21.40;74.20;;;;;;6236892;28;20241;-79
2023/08/21 00:41:23;;;;;;;11.50;10.53;;;21.40;74.40;;;;;;6219565;28;20764;-79
2023/08/21 00:44:26;;;;;;;11.33;10.23;;;21.40;74.70;;;;;;6234792;28;20862;-82
2023/08/21 00:47:31;;;;;;;11.60;10.73;;;21.30;74.60;;;;;;6236054;28;20242;-81
2023/08/21 00:50:34;;;;;;;11.37;10.27;;;21.30;74.70;;;;;;6231400;28;20240;-82
2023/08/21 00:53:37;;;;;;;11.40;10.50;;;21.30;74.70;;;;;;6236755;28;20258;-82
2023/08/21 00:56:40;;;;;;;11.20;10.20;;;21.20;74.80;;;;;;6237708;28;20312;-81
2023/08/21 00:59:44;;;;;;;13.17;11.87;;;21.20;74.90;;;;;;6229927;28;20851;-79
2023/08/21 01:02:48;;;;;;;10.33;9.63;;;21.20;75.20;;;;;;6229490;28;20924;-80
2023/08/21 01:05:51;;;;;;;9.23;8.73;;;21.10;75.10;;;;;;6236213;28;20238;-81
2023/08/21 01:09:04;;;;;;;14.33;12.97;;;21.10;75.10;;;;;;6227635;28;20298;-80
2023/08/21 01:12:18;;;;;;;11.47;10.57;;;21.10;75.50;;;;;;6238798;28;20703;-79
2023/08/21 01:15:22;;;;;;;11.60;10.53;;;21.10;75.50;;;;;;6241843;28;20910;-81
2023/08/21 01:18:29;;;;;;;12.20;11.17;;;21.10;75.60;;;;;;6239771;28;20269;-81
2023/08/21 01:21:32;;;;;;;12.50;11.40;;;21.10;75.50;;;;;;6239889;28;20230;-82
2023/08/21 01:24:37;;;;;;;13.10;11.97;;;21.10;75.90;;;;;;6233172;28;20322;-81
2023/08/21 01:27:42;;;;;;;11.70;10.50;;;21.10;75.90;;;;;;6237828;28;20777;-83
2023/08/21 01:30:45;;;;;;;11.67;10.53;;;21.10;75.90;;;;;;6236859;28;20243;-80
2023/08/21 01:33:53;;;;;;;12.33;11.23;;;21.10;76.00;;;;;;6240047;28;20257;-81
2023/08/21 01:36:57;;;;;;;12.57;11.63;;;21.20;76.00;;;;;;6240015;28;20240;-81
2023/08/21 01:40:01;;;;;;;12.23;11.03;;;21.20;75.80;;;;;;6239813;28;20242;-81
2023/08/21 01:43:05;;;;;;;12.23;11.33;;;21.30;75.90;;;;;;6233886;28;20244;-79
2023/08/21 01:46:08;;;;;;;11.23;10.33;;;21.30;75.90;;;;;;6221585;28;20285;-81
2023/08/21 01:49:11;;;;;;;11.70;10.83;;;21.30;75.80;;;;;;6233159;28;20242;-82
2023/08/21 01:52:14;;;;;;;13.03;11.97;;;21.30;75.80;;;;;;6240787;28;20238;-80
2023/08/21 01:55:19;;;;;;;12.70;11.70;;;21.30;75.80;;;;;;6241595;28;20260;-81
2023/08/21 01:58:22;;;;;;;13.27;12.07;;;21.40;75.80;;;;;;6241532;28;20800;-84
2023/08/21 02:01:25;;;;;;;12.07;10.93;;;21.40;75.80;;;;;;6239637;28;20939;-83
2023/08/21 02:04:28;;;;;;;12.23;11.13;;;21.40;75.70;;;;;;6236116;28;20322;-81
2023/08/21 02:07:31;;;;;;;12.50;11.30;;;21.40;75.70;;;;;;6239105;28;20230;-80
2023/08/21 02:10:35;;;;;;;14.30;12.53;;;21.40;75.50;;;;;;6229878;28;20324;-82
2023/08/21 02:13:38;;;;;;;12.57;11.47;;;21.40;75.60;;;;;;6234371;28;20254;-83
2023/08/21 02:16:41;;;;;;;12.03;11.00;;;21.40;75.60;;;;;;6230053;28;20328;-82
2023/08/21 02:19:44;;;;;;;12.80;11.57;;;21.40;75.50;;;;;;6232694;28;20325;-79
2023/08/21 02:22:48;;;;;;;11.50;10.37;;;21.30;75.60;;;;;;6214085;28;20318;-83
2023/08/21 02:25:52;;;;;;;11.83;10.80;;;21.30;75.70;;;;;;6206813;28;20315;-80
2023/08/21 02:28:57;;;;;;;11.37;10.50;;;21.20;75.80;;;;;;6200887;28;20765;-81
2023/08/21 02:32:00;;;;;;;10.90;10.07;;;21.20;75.80;;;;;;6224011;28;20250;-82
2023/08/21 02:35:04;;;;;;;10.77;9.97;;;21.10;75.90;;;;;;6223074;28;20255;-81
2023/08/21 02:38:09;;;;;;;10.50;9.60;;;21.10;75.80;;;;;;6232606;28;20326;-82
2023/08/21 02:41:14;;;;;;;11.67;10.77;;;21.10;75.80;;;;;;6213869;28;20310;-83
2023/08/21 02:44:20;;;;;;;11.93;10.93;;;21.10;75.80;;;;;;6218174;28;20235;-81
2023/08/21 02:47:23;;;;;;;10.40;9.70;;;21.20;75.80;;;;;;6216231;28;20256;-80
2023/08/21 02:50:26;;;;;;;12.20;11.20;;;21.10;75.70;;;;;;6225471;28;20240;-80
2023/08/21 02:53:29;;;;;;;11.77;10.77;;;21.10;75.80;;;;;;6218342;28;20235;-80
2023/08/21 02:56:33;;;;;;;11.30;10.50;;;21.10;75.70;;;;;;6207199;28;20316;-79
2023/08/21 02:59:36;;;;;;;10.77;9.97;;;21.10;75.70;;;;;;6224709;28;20318;-81
2023/08/21 03:02:42;;;;;;;11.63;10.77;;;21.10;75.70;;;;;;6234143;28;20225;-79
2023/08/21 03:05:46;;;;;;;12.50;11.40;;;21.10;75.60;;;;;;6237261;28;20220;-79
2023/08/21 03:08:49;;;;;;;11.10;10.20;;;21.10;75.70;;;;;;6257380;28;20689;-79
2023/08/21 03:11:54;;;;;;;11.33;10.30;;;21.10;75.70;;;;;;6244737;28;20235;-74
2023/08/21 03:14:57;;;;;;;10.73;9.93;;;21.10;75.70;;;;;;6210557;28;20246;-83
2023/08/21 03:18:00;;;;;;;11.87;10.77;;;21.10;75.70;;;;;;6222996;28;20647;-82
2023/08/21 03:21:03;;;;;;;11.33;10.33;;;21.10;75.70;;;;;;6247514;28;20253;-79
2023/08/21 03:24:08;;;;;;;10.57;9.77;;;21.10;75.70;;;;;;6240508;28;20242;-81
2023/08/21 03:27:12;;;;;;;10.63;9.93;;;21.10;75.50;;;;;;6238053;28;20297;-80
2023/08/21 03:30:16;;;;;;;10.30;9.43;;;21.10;75.50;;;;;;6239313;28;20611;-76
2023/08/21 03:33:19;;;;;;;10.43;9.63;;;21.10;75.40;;;;;;6233338;28;20254;-80
2023/08/21 03:36:30;;;;;;;10.27;9.50;;;21.20;75.00;;;;;;6220779;28;20238;-80
2023/08/21 03:39:33;;;;;;;10.10;9.40;;;21.20;74.90;;;;;;6243956;28;20736;-77
2023/08/21 03:42:38;;;;;;;9.57;8.83;;;21.20;74.80;;;;;;6265342;28;20234;-79
2023/08/21 03:45:42;;;;;;;10.00;9.27;;;21.20;74.70;;;;;;6238074;28;20253;-79
2023/08/21 03:48:45;;;;;;;10.50;9.80;;;21.10;74.80;;;;;;6238384;28;20395;-79
2023/08/21 03:51:48;;;;;;;10.23;9.53;;;21.10;74.90;;;;;;6245210;28;20319;-78
2023/08/21 03:54:51;;;;;;;9.80;8.90;;;21.10;74.90;;;;;;6235433;28;20258;-75
2023/08/21 03:57:55;;;;;;;9.17;8.57;;;21.10;74.90;;;;;;6233309;28;20813;-80
2023/08/21 04:00:59;;;;;;;9.87;9.10;;;21.10;74.90;;;;;;6234076;28;20288;-76
2023/08/21 04:04:02;;;;;;;9.13;8.50;;;21.00;75.00;;;;;;6232700;28;20235;-78
2023/08/21 04:07:06;;;;;;;11.57;10.40;;;21.00;75.00;;;;;;6231134;28;20242;-76
2023/08/21 04:10:09;;;;;;;10.63;9.83;;;21.00;75.00;;;;;;6229095;28;20238;-78
2023/08/21 04:13:13;;;;;;;11.20;10.30;;;21.10;74.90;;;;;;6233649;28;20325;-78
2023/08/21 04:16:17;;;;;;;9.70;8.80;;;21.00;74.80;;;;;;6223856;28;20231;-78
2023/08/21 04:19:21;;;;;;;10.40;9.57;;;21.10;74.70;;;;;;6227118;28;20249;-77
2023/08/21 04:22:24;;;;;;;10.27;9.40;;;21.10;74.40;;;;;;6230059;28;20306;-78
2023/08/21 04:25:27;;;;;;;9.83;9.00;;;21.10;74.30;;;;;;6232737;28;20791;-77
2023/08/21 04:28:32;;;;;;;10.97;9.90;;;21.10;74.10;;;;;;6226588;28;20603;-79
2023/08/21 04:31:35;;;;;;;9.73;9.03;;;21.20;73.90;;;;;;6235972;28;20246;-78
2023/08/21 04:34:38;;;;;;;13.13;10.13;;;21.30;73.60;;;;;;6234496;28;20744;-78
2023/08/21 04:37:48;;;;;;;10.30;9.47;;;21.30;73.50;;;;;;6235932;28;20644;-78
2023/08/21 04:40:51;;;;;;;12.93;10.00;;;21.30;73.60;;;;;;6229639;28;20504;-76
2023/08/21 04:43:55;;;;;;;9.20;8.40;;;21.30;73.60;;;;;;6233368;28;20281;-77
2023/08/21 04:46:58;;;;;;;10.47;9.60;;;21.40;73.40;;;;;;6237887;28;20302;-76
2023/08/21 04:50:02;;;;;;;11.03;10.17;;;21.40;73.20;;;;;;6210814;28;20372;-78
2023/08/21 04:53:05;;;;;;;10.37;9.60;;;21.40;73.50;;;;;;6241736;28;20874;-78
2023/08/21 04:56:08;;;;;;;11.10;10.10;;;21.40;73.50;;;;;;6233456;28;20238;-75
2023/08/21 04:59:12;;;;;;;12.27;10.97;;;21.40;73.50;;;;;;6234991;28;20238;-77
2023/08/21 05:02:15;;;;;;;10.57;9.73;;;21.40;73.90;;;;;;6242303;28;20749;-77
2023/08/21 05:05:20;;;;;;;11.23;10.27;;;21.50;73.80;;;;;;6243754;28;20731;-77
2023/08/21 05:08:24;;;;;;;12.07;11.03;;;21.50;73.70;;;;;;6237903;28;20301;-79
2023/08/21 05:11:27;;;;;;;11.30;10.40;;;21.50;73.60;;;;;;6237015;28;20234;-79
2023/08/21 05:14:31;;;;;;;10.77;9.87;;;21.50;73.60;;;;;;6240665;28;20312;-78
2023/08/21 05:17:34;;;;;;;11.43;10.37;;;21.50;73.50;;;;;;6239249;28;20237;-76
2023/08/21 05:20:37;;;;;;;11.80;10.70;;;21.50;73.50;;;;;;6241068;28;20238;-78
2023/08/21 05:23:40;;;;;;;11.40;10.53;;;21.40;73.70;;;;;;6240293;28;20831;-77
2023/08/21 05:26:43;;;;;;;11.77;10.67;;;21.40;73.80;;;;;;6224091;28;20725;-80
2023/08/21 05:29:49;;;;;;;11.90;10.77;;;21.40;74.00;;;;;;6240302;28;20340;-77
2023/08/21 05:32:52;;;;;;;10.30;9.60;;;21.50;74.00;;;;;;6239726;28;20312;-77
2023/08/21 05:35:57;;;;;;;11.17;9.90;;;21.60;73.80;;;;;;6241413;28;20317;-77
2023/08/21 05:39:05;;;;;;;11.03;10.13;;;21.70;73.60;;;;;;6241361;28;20297;-77
2023/08/21 05:42:08;;;;;;;11.93;10.83;;;21.80;73.40;;;;;;6237487;28;20237;-76
2023/08/21 05:45:12;;;;;;;13.07;11.97;;;21.70;73.40;;;;;;6240443;28;20255;-78
2023/08/21 05:48:16;;;;;;;11.93;10.90;;;21.70;73.60;;;;;;6238559;28;20326;-78
2023/08/21 05:51:19;;;;;;;10.57;9.67;;;21.70;73.70;;;;;;6240478;28;20254;-78
2023/08/21 05:54:22;;;;;;;12.20;11.00;;;22.00;73.60;;;;;;6237943;28;20372;-79
2023/08/21 05:57:25;;;;;;;13.63;12.23;;;22.20;72.60;;;;;;6240974;28;20288;-77
2023/08/21 06:00:30;;;;;;;12.87;11.87;;;22.30;72.00;;;;;;6239514;28;20325;-77
2023/08/21 06:03:33;;;;;;;10.80;9.87;;;22.30;72.20;;;;;;6238928;28;20227;-79
2023/08/21 06:06:36;;;;;;;11.73;10.60;;;22.50;72.30;;;;;;6235849;28;20238;-79
2023/08/21 06:09:39;;;;;;;12.50;11.50;;;22.60;71.70;;;;;;6224672;28;20281;-80
2023/08/21 06:12:44;;;;;;;11.63;10.47;;;22.60;71.60;;;;;;6238464;28;20231;-78
2023/08/21 06:15:48;;;;;;;11.53;10.63;;;22.70;71.30;;;;;;6238819;28;20311;-77
2023/08/21 06:18:51;;;;;;;11.23;10.33;;;22.80;71.00;;;;;;6237386;28;20242;-78
2023/08/21 06:21:55;;;;;;;9.67;9.07;;;22.70;70.70;;;;;;6238524;28;20273;-76
2023/08/21 06:24:58;;;;;;;9.20;8.60;;;22.90;70.80;;;;;;6236739;28;20401;-79
2023/08/21 06:28:01;;;;;;;11.47;10.33;;;23.10;70.10;;;;;;6238402;28;20292;-80
2023/08/21 06:31:07;;;;;;;10.77;9.63;;;23.00;69.60;;;;;;6237332;28;20377;-78
2023/08/21 06:34:10;;;;;;;11.00;10.00;;;23.00;69.60;;;;;;6237536;28;20254;-79
2023/08/21 06:37:13;;;;;;;9.50;8.90;;;23.00;68.90;;;;;;6237063;28;20230;-78
2023/08/21 06:40:17;;;;;;;11.27;10.27;;;23.00;69.30;;;;;;6237497;28;20848;-78
2023/08/21 06:43:21;;;;;;;10.63;9.83;;;23.00;69.30;;;;;;6238015;28;20257;-80
2023/08/21 06:46:26;;;;;;;10.90;9.83;;;23.00;69.30;;;;;;6213087;28;20238;-77
2023/08/21 06:49:29;;;;;;;11.00;9.67;;;23.00;69.30;;;;;;6232126;28;20246;-77
2023/08/21 06:52:32;;;;;;;10.53;9.80;;;23.20;68.70;;;;;;6239507;28;20254;-77
2023/08/21 06:55:35;;;;;;;10.77;9.67;;;23.40;68.00;;;;;;6239386;28;20323;-78
2023/08/21 06:58:38;;;;;;;10.50;9.60;;;23.40;68.00;;;;;;6238585;28;20862;-78
2023/08/21 07:01:43;;;;;;;10.37;9.47;;;23.40;68.10;;;;;;6237621;28;20416;-77
2023/08/21 07:04:46;;;;;;;10.53;9.73;;;23.60;67.90;;;;;;6229021;28;20268;-77
2023/08/21 07:07:49;;;;;;;11.70;10.83;;;23.70;67.60;;;;;;6234101;28;20754;-77
2023/08/21 07:10:53;;;;;;;10.00;9.30;;;23.80;67.60;;;;;;6235936;28;20316;-77
2023/08/21 07:13:56;;;;;;;11.60;9.53;;;24.00;67.50;;;;;;6237208;28;20241;-76
2023/08/21 07:17:00;;;;;;;9.37;8.60;;;24.20;66.60;;;;;;6229865;28;20341;-77
2023/08/21 07:20:04;;;;;;;10.83;9.87;;;24.40;65.60;;;;;;6223500;28;20749;-77
2023/08/21 07:23:07;;;;;;;8.50;7.93;;;24.60;65.20;;;;;;6236019;28;20639;-78
2023/08/21 07:26:10;;;;;;;8.80;8.00;;;24.60;65.60;;;;;;6229055;28;20285;-78
2023/08/21 07:29:13;;;;;;;7.80;7.10;;;24.70;63.90;;;;;;6232298;28;20325;-77
2023/08/21 07:32:17;;;;;;;10.57;7.63;;;24.90;63.10;;;;;;6230287;28;20806;-76
2023/08/21 07:35:21;;;;;;;7.33;6.80;;;25.00;62.50;;;;;;6234681;28;20223;-77
2023/08/21 07:38:24;;;;;;;7.60;7.00;;;25.10;62.50;;;;;;6206485;28;20314;-76
2023/08/21 07:41:27;;;;;;;9.57;7.00;;;25.10;61.90;;;;;;6223542;28;20384;-78
2023/08/21 07:44:30;;;;;;;6.60;6.13;;;25.00;62.00;;;;;;6237625;28;20230;-79
2023/08/21 07:47:35;;;;;;;6.97;6.30;;;24.80;62.10;;;;;;6233436;28;20242;-77
2023/08/21 07:50:39;;;;;;;6.87;6.20;;;24.80;62.60;;;;;;6233298;28;20231;-80
2023/08/21 07:53:42;;;;;;;6.87;6.30;;;24.90;61.50;;;;;;6234983;28;20377;-77
2023/08/21 07:56:45;;;;;;;7.57;6.90;;;25.00;61.50;;;;;;6236976;28;20254;-79
2023/08/21 07:59:48;;;;;;;7.27;6.63;;;25.00;61.00;;;;;;6233613;28;20234;-76
2023/08/21 08:02:53;;;;;;;6.03;5.63;;;25.30;61.30;;;;;;6234579;28;20257;-79
2023/08/21 08:05:56;;;;;;;8.07;6.33;;;25.60;61.10;;;;;;6235367;28;20242;-76
2023/08/21 08:09:03;;;;;;;5.67;5.33;;;25.80;58.60;;;;;;6221750;28;20243;-78
2023/08/21 08:12:07;;;;;;;7.50;5.47;;;26.00;58.30;;;;;;6229048;28;20374;-78
2023/08/21 08:15:11;;;;;;;4.90;4.70;;;26.00;56.90;;;;;;6234515;28;20250;-76
2023/08/21 08:18:15;;;;;;;6.40;4.80;;;25.90;55.50;;;;;;6228803;28;20907;-78
2023/08/21 08:21:19;;;;;;;4.77;4.47;;;25.80;56.50;;;;;;6232798;28;20234;-80
2023/08/21 08:24:23;;;;;;;6.33;4.80;;;25.70;56.60;;;;;;6230596;28;20321;-76
2023/08/21 08:27:26;;;;;;;4.60;4.30;;;25.70;56.20;;;;;;6227627;28;20582;-77
2023/08/21 08:30:29;;;;;;;5.40;4.90;;;25.60;56.00;;;;;;6228943;28;20677;-77
2023/08/21 08:33:34;;;;;;;5.73;5.33;;;25.50;56.10;;;;;;6238741;28;20321;-79
2023/08/21 08:36:37;;;;;;;4.53;4.23;;;25.40;55.50;;;;;;6216109;28;20255;-78
2023/08/21 08:39:40;;;;;;;5.03;4.50;;;25.30;56.20;;;;;;6227833;28;20242;-76
2023/08/21 08:42:43;;;;;;;7.00;4.53;;;25.30;56.90;;;;;;6237639;28;20234;-75
2023/08/21 08:45:48;;;;;;;5.47;4.97;;;25.30;56.50;;;;;;6233782;28;20835;-77
2023/08/21 08:48:53;;;;;;;4.40;4.07;;;25.30;56.40;;;;;;6219687;28;20237;-77
2023/08/21 08:51:56;;;;;;;4.20;3.90;;;25.50;57.30;;;;;;6232764;28;20241;-76
2023/08/21 08:54:59;;;;;;;3.57;3.30;;;25.40;53.40;;;;;;6237240;28;20281;-76
2023/08/21 08:58:02;;;;;;;3.57;3.27;;;25.50;53.70;;;;;;6237260;28;20231;-76
2023/08/21 09:01:05;;;;;;;3.13;2.80;;;25.50;52.50;;;;;;6235884;28;20859;-77
2023/08/21 09:04:10;;;;;;;2.67;2.47;;;25.50;52.30;;;;;;6238691;28;20233;-78
2023/08/21 09:07:13;;;;;;;3.13;2.90;;;25.60;50.90;;;;;;6240046;28;20234;-80
2023/08/21 09:10:17;;;;;;;2.70;2.60;;;25.70;52.00;;;;;;6229066;28;20325;-76
2023/08/21 09:13:20;;;;;;;2.80;2.60;;;26.10;50.70;;;;;;6235343;28;20235;-77
2023/08/21 09:16:25;;;;;;;2.50;2.10;;;26.40;48.70;;;;;;6235854;28;20238;-77
2023/08/21 09:19:30;;;;;;;2.60;2.40;;;26.70;49.00;;;;;;6236565;28;20662;-78
2023/08/21 09:22:33;;;;;;;2.57;2.37;;;27.10;47.20;;;;;;6247368;28;20739;-79
2023/08/21 09:25:37;;;;;;;1.80;1.70;;;27.30;46.50;;;;;;6232335;28;20243;-77
2023/08/21 09:28:40;;;;;;;4.83;2.23;;;27.40;45.70;;;;;;6234936;28;20291;-76
2023/08/21 09:31:45;;;;;;;2.70;2.50;;;27.40;46.60;;;;;;6235569;28;20235;-76
2023/08/21 09:34:50;;;;;;;3.57;2.13;;;27.40;47.90;;;;;;6232857;28;20325;-78
2023/08/21 09:37:53;;;;;;;3.00;2.30;;;27.30;47.70;;;;;;6236173;28;22089;-75
2023/08/21 09:40:56;;;;;;;3.23;2.20;;;27.00;49.10;;;;;;6234403;28;20254;-76
2023/08/21 09:44:00;;;;;;;2.60;2.40;;;26.90;50.00;;;;;;6237165;28;20235;-81
2023/08/21 09:47:04;;;;;;;2.00;1.90;;;26.80;50.10;;;;;;6237300;28;20848;-79
2023/08/21 09:50:09;;;;;;;2.73;2.30;;;26.90;49.60;;;;;;6236649;28;20264;-79
2023/08/21 09:53:13;;;;;;;2.27;2.03;;;27.30;49.90;;;;;;6232168;28;20318;-75
2023/08/21 09:56:17;;;;;;;3.70;2.33;;;27.40;49.40;;;;;;6239524;28;20226;-74
2023/08/21 09:59:22;;;;;;;2.30;1.70;;;27.50;49.00;;;;;;6237196;28;20286;-75
2023/08/21 10:02:28;;;;;;;2.50;1.87;;;27.90;47.90;;;;;;6239165;28;20253;-77
2023/08/21 10:05:34;;;;;;;2.30;2.20;;;27.90;47.50;;;;;;6235793;28;20877;-75
2023/08/21 10:08:39;;;;;;;5.07;1.97;;;27.50;48.30;;;;;;6231046;28;20675;-77
2023/08/21 10:11:44;;;;;;;2.40;2.30;;;27.50;48.20;;;;;;6211429;28;20254;-78
2023/08/21 10:14:48;;;;;;;2.43;2.33;;;27.60;48.50;;;;;;6238996;28;20239;-78
2023/08/21 10:17:51;;;;;;;1.97;1.87;;;27.70;48.60;;;;;;6235030;28;20336;-76
2023/08/21 10:20:55;;;;;;;2.23;2.17;;;27.50;47.90;;;;;;6239340;28;20230;-79
2023/08/21 10:24:01;;;;;;;2.40;2.30;;;27.40;48.30;;;;;;6234726;28;20313;-75
2023/08/21 10:27:05;;;;;;;2.50;2.47;;;27.40;48.00;;;;;;6238779;28;20222;-77
2023/08/21 10:30:14;;;;;;;2.67;2.50;;;27.00;49.40;;;;;;6236053;28;20337;-78
2023/08/21 10:33:19;;;;;;;2.20;2.20;;;26.90;49.50;;;;;;6237664;28;20251;-79
2023/08/21 10:37:01;;;;;;;2.97;2.13;;;26.90;48.90;;;;;;6237425;28;20762;-77
2023/08/21 10:40:22;;;;;;;2.70;2.10;;;26.70;48.40;;;;;;6231050;28;20239;-77
2023/08/21 10:43:40;;;;;;;2.50;2.40;;;26.90;48.20;;;;;;6235987;28;20291;-78
2023/08/21 10:46:53;;;;;;;2.50;2.40;;;27.00;47.10;;;;;;6238301;28;20393;-78
2023/08/21 10:49:58;;;;;;;1.67;1.63;;;27.20;46.90;;;;;;6237473;28;20291;-78
2023/08/21 10:53:01;;;;;;;2.70;2.50;;;27.00;47.50;;;;;;6236840;28;20246;-76
2023/08/21 10:56:07;;;;;;;3.43;2.20;;;27.10;47.50;;;;;;6228215;28;20376;-80
2023/08/21 10:59:10;;;;;;;3.93;2.50;;;27.10;49.60;;;;;;6237137;28;20234;-78
2023/08/21 11:02:15;;;;;;;4.73;2.57;;;27.20;48.60;;;;;;6235664;28;20786;-75
2023/08/21 11:05:18;;;;;;;2.37;2.27;;;27.00;49.70;;;;;;6238984;28;20369;-78
2023/08/21 11:08:21;;;;;;;2.47;2.33;;;27.20;48.40;;;;;;6237970;28;20238;-77
2023/08/21 11:11:26;;;;;;;2.43;2.33;;;27.20;49.20;;;;;;6228987;28;20716;-78
2023/08/21 11:14:29;;;;;;;2.90;2.27;;;27.40;49.10;;;;;;6234447;28;20862;-75
2023/08/21 11:17:32;;;;;;;3.73;2.40;;;27.30;48.80;;;;;;6237627;28;20320;-76
2023/08/21 11:20:36;;;;;;;2.17;2.07;;;27.50;48.60;;;;;;6213913;28;20856;-77
2023/08/21 11:23:41;;;;;;;2.80;2.60;;;27.20;48.50;;;;;;6220817;28;20231;-77
2023/08/21 11:26:46;;;;;;;2.20;2.10;;;27.20;49.80;;;;;;6221438;28;20701;-78
2023/08/21 11:29:50;;;;;;;1.97;1.90;;;27.30;48.80;;;;;;6210466;28;20330;-79
2023/08/21 11:33:06;;;;;;;3.00;2.80;;;27.30;48.40;;;;;;6211606;28;20243;-78
2023/08/21 11:36:09;;;;;;;2.70;2.50;;;27.20;48.30;;;;;;6203078;28;20245;-78
2023/08/21 11:39:13;;;;;;;2.17;1.90;;;27.10;49.20;;;;;;6227002;28;20295;-77
2023/08/21 11:42:18;;;;;;;1.87;1.77;;;27.30;48.50;;;;;;6212740;28;20373;-78
2023/08/21 11:45:22;;;;;;;2.20;2.03;;;27.20;47.20;;;;;;6214225;28;20730;-76
2023/08/21 11:48:25;;;;;;;1.80;1.80;;;27.50;47.80;;;;;;6208154;28;20894;-76
2023/08/21 11:51:28;;;;;;;1.90;1.70;;;27.80;47.20;;;;;;6218599;28;20244;-77
2023/08/21 11:54:35;;;;;;;2.22;2.13;;;28.00;47.00;;;;;;6212248;28;20905;-81
2023/08/21 11:57:49;;;;;;;1.90;1.80;;;28.00;47.20;;;;;;6221084;28;20340;-80
2023/08/21 12:00:52;;;;;;;2.20;2.10;;;27.50;47.00;;;;;;6211777;28;20246;-80
2023/08/21 12:03:55;;;;;;;2.13;1.98;;;27.70;46.20;;;;;;6196760;28;20784;-81
2023/08/21 12:06:59;;;;;;;4.03;1.83;;;27.90;45.90;;;;;;6223538;28;20722;-81
2023/08/21 12:10:02;;;;;;;1.50;1.50;;;27.50;46.50;;;;;;6211938;28;20780;-81
2023/08/21 12:13:07;;;;;;;3.03;2.13;;;27.50;47.10;;;;;;6205652;28;20322;-81
2023/08/21 12:16:10;;;;;;;2.90;2.57;;;27.60;46.90;;;;;;6215860;28;20376;-81
2023/08/21 12:19:14;;;;;;;2.70;2.13;;;27.80;46.90;;;;;;6217010;28;20235;-80
2023/08/21 12:22:17;;;;;;;2.33;2.30;;;27.10;48.40;;;;;;6217917;28;20241;-80
2023/08/21 12:25:20;;;;;;;2.33;2.20;;;27.20;48.50;;;;;;6220875;28;20281;-84
2023/08/21 12:28:24;;;;;;;2.27;2.00;;;27.30;48.80;;;;;;6208469;28;20258;-82
2023/08/21 12:31:27;;;;;;;3.30;2.37;;;27.40;49.00;;;;;;6216699;28;20768;-79
2023/08/21 12:34:30;;;;;;;2.27;2.17;;;27.40;47.90;;;;;;6214874;28;20800;-80
2023/08/21 12:37:33;;;;;;;3.57;2.27;;;27.20;49.00;;;;;;6212157;28;20322;-79
2023/08/21 12:40:36;;;;;;;2.80;2.60;;;27.00;48.90;;;;;;6219542;28;20369;-78
2023/08/21 12:43:42;;;;;;;3.97;2.27;;;26.80;49.70;;;;;;6220949;28;20725;-84
2023/08/21 12:46:46;;;;;;;2.13;2.03;;;26.70;49.70;;;;;;6205803;28;20235;-81
2023/08/21 12:49:49;;;;;;;2.40;2.20;;;26.50;50.50;;;;;;6213992;28;20322;-79
2023/08/21 12:52:52;;;;;;;10.43;2.87;;;26.40;50.50;;;;;;6224879;28;20238;-82
2023/08/21 12:55:55;;;;;;;2.10;2.00;;;26.40;50.70;;;;;;6207868;28;20309;-79
2023/08/21 12:59:00;;;;;;;1.70;1.70;;;26.70;49.60;;;;;;6211217;28;21801;-80
2023/08/21 13:02:03;;;;;;;2.27;1.93;;;27.10;47.90;;;;;;6215810;28;20246;-81
2023/08/21 13:05:08;;;;;;;2.40;2.20;;;27.40;47.20;;;;;;6201094;28;20255;-80
2023/08/21 13:08:12;;;;;;;1.63;1.53;;;27.60;47.00;;;;;;6208040;28;20254;-80
2023/08/21 13:11:15;;;;;;;1.60;1.50;;;27.50;44.70;;;;;;6207390;28;20247;-80
2023/08/21 13:14:19;;;;;;;1.80;1.70;;;27.80;45.10;;;;;;6212288;28;20258;-80
2023/08/21 13:17:22;;;;;;;1.33;1.33;;;27.80;44.00;;;;;;6230804;28;20323;-78
2023/08/21 13:20:25;;;;;;;3.17;1.83;;;28.00;44.50;;;;;;6204451;28;20227;-80
2023/08/21 13:23:30;;;;;;;1.70;1.60;;;27.80;43.50;;;;;;6210032;28;20743;-77
2023/08/21 13:26:33;;;;;;;2.87;1.87;;;27.80;44.10;;;;;;6215831;28;20235;-76
2023/08/21 13:29:39;;;;;;;2.57;1.97;;;27.50;44.00;;;;;;6205806;28;20243;-79
2023/08/21 13:32:43;;;;;;;1.90;1.80;;;27.40;43.90;;;;;;6214418;28;20991;-76
2023/08/21 13:35:46;;;;;;;2.20;1.93;;;27.50;45.10;;;;;;6212664;28;20271;-77
2023/08/21 13:38:49;;;;;;;2.20;2.10;;;27.70;45.60;;;;;;6214163;28;20270;-78
2023/08/21 13:41:52;;;;;;;2.20;2.10;;;27.80;46.00;;;;;;6215731;28;20370;-77
2023/08/21 13:44:57;;;;;;;1.67;1.63;;;27.70;45.70;;;;;;6216007;28;20236;-78
2023/08/21 13:48:00;;;;;;;2.43;2.20;;;27.60;46.30;;;;;;6203398;28;20287;-78
2023/08/21 13:51:03;;;;;;;1.63;1.50;;;27.80;47.20;;;;;;6214666;28;20243;-77
2023/08/21 13:54:06;;;;;;;2.47;1.70;;;28.00;46.80;;;;;;6214944;28;20231;-79
2023/08/21 13:57:09;;;;;;;1.95;1.83;;;27.90;47.10;;;;;;6209496;28;20235;-78
2023/08/21 14:00:17;;;;;;;3.03;1.50;;;28.00;46.70;;;;;;6212869;28;20274;-78
2023/08/21 14:03:21;;;;;;;1.90;1.80;;;28.20;46.20;;;;;;6211699;28;20240;-77
2023/08/21 14:06:24;;;;;;;1.88;1.77;;;28.10;45.90;;;;;;6215077;28;20694;-76
2023/08/21 14:09:27;;;;;;;1.88;1.77;;;28.50;45.10;;;;;;6213808;28;20332;-76
2023/08/21 14:12:31;;;;;;;1.65;1.58;;;28.50;44.80;;;;;;6214068;28;20294;-77
2023/08/21 14:15:36;;;;;;;2.75;1.60;;;28.40;45.00;;;;;;6210268;28;20321;-76
2023/08/21 14:18:39;;;;;;;1.55;1.55;;;28.30;45.70;;;;;;6209312;28;20237;-76
2023/08/21 14:21:42;;;;;;;1.88;1.77;;;28.10;45.90;;;;;;6230138;28;20234;-78
2023/08/21 14:24:45;;;;;;;3.25;1.80;;;28.10;46.60;;;;;;6239165;28;20341;-76
2023/08/21 14:27:48;;;;;;;2.77;1.53;;;28.10;45.60;;;;;;6239001;28;20246;-77
2023/08/21 14:30:53;;;;;;;2.03;1.87;;;27.50;45.40;;;;;;6233661;28;20247;-73
2023/08/21 14:33:57;;;;;;;2.03;1.80;;;27.80;45.90;;;;;;6236293;28;20238;-75
2023/08/21 14:37:00;;;;;;;1.70;1.60;;;28.10;45.80;;;;;;6237581;28;20238;-78
2023/08/21 14:40:09;;;;;;;3.25;1.95;;;28.30;44.90;;;;;;6234678;28;20697;-78
2023/08/21 14:43:13;;;;;;;1.90;1.80;;;28.50;44.00;;;;;;6239119;28;20249;-77
2023/08/21 14:46:17;;;;;;;1.20;1.20;;;28.50;44.10;;;;;;6232403;28;20309;-77
2023/08/21 14:49:42;;;;;;;1.63;1.40;;;28.60;42.80;;;;;;6235458;28;20234;-78
2023/08/21 14:52:45;;;;;;;1.58;1.40;;;28.70;42.90;;;;;;6238470;28;20772;-77
2023/08/21 14:55:48;;;;;;;1.70;1.70;;;28.50;43.10;;;;;;6232825;28;20235;-76
2023/08/21 14:58:51;;;;;;;1.70;1.60;;;28.10;43.10;;;;;;6228917;28;20903;-75
2023/08/21 15:01:56;;;;;;;1.43;1.40;;;28.00;43.30;;;;;;6238720;28;20265;-76
2023/08/21 15:04:59;;;;;;;2.73;1.77;;;27.70;44.50;;;;;;6238794;28;20639;-78
2023/08/21 15:08:02;;;;;;;1.80;1.67;;;27.50;44.20;;;;;;6237463;28;20230;-75
2023/08/21 15:11:05;;;;;;;2.20;2.10;;;27.30;44.20;;;;;;6237061;28;20262;-77
2023/08/21 15:14:11;;;;;;;2.07;1.87;;;27.10;44.40;;;;;;6224351;28;20801;-76
2023/08/21 15:17:16;;;;;;;2.50;2.00;;;27.00;45.00;;;;;;6237554;28;20690;-77
2023/08/21 15:20:22;;;;;;;1.83;1.73;;;26.90;45.50;;;;;;6233589;28;20832;-76
2023/08/21 15:23:25;;;;;;;1.70;1.60;;;26.70;46.10;;;;;;6236812;28;20322;-78
2023/08/21 15:26:28;;;;;;;1.63;1.63;;;26.60;46.00;;;;;;6236085;28;20314;-76
2023/08/21 15:29:31;;;;;;;1.80;1.70;;;26.60;46.30;;;;;;6230879;28;20230;-77
2023/08/21 15:32:35;;;;;;;1.80;1.70;;;26.60;46.80;;;;;;6236640;28;20266;-77
2023/08/21 15:35:39;;;;;;;2.80;1.60;;;26.80;45.80;;;;;;6235281;28;20242;-78
2023/08/21 15:38:42;;;;;;;6.50;1.70;;;26.90;46.10;;;;;;6237569;28;20238;-76
2023/08/21 15:41:45;;;;;;;1.40;1.40;;;27.00;45.90;;;;;;6234648;28;20373;-77
2023/08/21 15:44:48;;;;;;;1.90;1.80;;;27.00;46.00;;;;;;6231918;28;20365;-78
2023/08/21 15:47:52;;;;;;;2.30;2.20;;;27.20;46.30;;;;;;6235831;28;20396;-79
2023/08/21 15:50:55;;;;;;;1.53;1.43;;;27.30;45.70;;;;;;6237824;28;20741;-81